Time;durP1;ratioP1;P1;durP2;ratioP2;P2;SDS_P1;SDS_P2;PMS_P1;PMS_P2;Temp;Humidity;BMP_temperature;BMP_pressure;BME280_temperature;BME280_humidity;BME280_pressure;Samples;Min_cycle;Max_cycle;Signal;HPM_P1;HPM_P2
2022/10/12 00:01:10;;;;;;;2.13;0.87;;;8.20;99.90;;;;;;6140847;23;20013;-89
2022/10/12 00:03:54;;;;;;;2.83;1.00;;;8.10;99.90;;;;;;6164442;23;20025;-91
2022/10/12 00:06:22;;;;;;;1.85;0.80;;;8.10;99.90;;;;;;6189777;23;20461;-90
2022/10/12 00:08:49;;;;;;;2.70;0.85;;;8.00;99.90;;;;;;6190126;23;20028;-91
2022/10/12 00:11:21;;;;;;;1.67;0.70;;;8.00;99.90;;;;;;6164903;23;20353;-87
2022/10/12 00:13:47;;;;;;;1.70;0.80;;;8.00;99.90;;;;;;6219313;22;20413;-90
2022/10/12 00:16:14;;;;;;;0.75;0.50;;;8.00;99.90;;;;;;6226068;22;20023;-89
2022/10/12 00:18:40;;;;;;;0.95;0.57;;;8.00;99.90;;;;;;6226145;22;20459;-88
2022/10/12 00:21:16;;;;;;;0.70;0.50;;;8.00;99.90;;;;;;6226236;22;20019;-89
2022/10/12 00:23:43;;;;;;;0.98;0.60;;;8.10;99.90;;;;;;6226327;22;20016;-92
2022/10/12 00:26:17;;;;;;;1.25;0.63;;;8.10;99.90;;;;;;6225721;22;20069;-88
2022/10/12 00:28:44;;;;;;;1.83;0.73;;;8.10;99.90;;;;;;6226245;22;20055;-89
2022/10/12 00:31:14;;;;;;;1.83;0.80;;;8.10;99.90;;;;;;6225930;22;20094;-89
2022/10/12 00:33:41;;;;;;;0.95;0.60;;;8.10;99.90;;;;;;6251322;22;20461;-89
2022/10/12 00:36:14;;;;;;;0.93;0.60;;;8.10;99.90;;;;;;6225871;22;20667;-90
2022/10/12 00:38:40;;;;;;;1.65;0.70;;;8.10;99.90;;;;;;6227615;22;20384;-91
2022/10/12 00:41:05;;;;;;;1.20;0.60;;;8.20;99.90;;;;;;6236750;22;20065;-86
2022/10/12 00:43:34;;;;;;;1.90;0.93;;;8.20;99.90;;;;;;6231248;22;20098;-90
2022/10/12 00:46:04;;;;;;;1.70;0.80;;;8.20;99.90;;;;;;6277569;22;20016;-90
2022/10/12 00:48:30;;;;;;;1.58;0.95;;;8.10;99.90;;;;;;6225775;22;20016;-90
2022/10/12 00:51:01;;;;;;;1.63;0.80;;;8.10;99.90;;;;;;6201914;22;20022;-92
2022/10/12 00:53:33;;;;;;;1.35;0.50;;;8.00;99.90;;;;;;6225771;22;20019;-89
2022/10/12 00:56:01;;;;;;;1.50;0.60;;;8.00;99.90;;;;;;6225527;22;20016;-88
2022/10/12 00:58:30;;;;;;;2.05;0.70;;;7.90;99.90;;;;;;6225790;22;20035;-91
2022/10/12 01:01:04;;;;;;;2.28;0.52;;;7.80;99.90;;;;;;6225043;22;20012;-89
2022/10/12 01:03:31;;;;;;;0.77;0.45;;;7.70;99.90;;;;;;6225647;22;20463;-90
2022/10/12 01:06:28;;;;;;;1.27;0.43;;;7.70;99.90;;;;;;6200228;22;20031;-90
2022/10/12 01:08:54;;;;;;;2.10;0.60;;;7.60;99.90;;;;;;6242321;22;20098;-90
2022/10/12 01:11:20;;;;;;;1.05;0.55;;;7.60;99.90;;;;;;6225916;22;20020;-90
2022/10/12 01:13:46;;;;;;;1.20;0.50;;;7.60;99.90;;;;;;6231441;22;20019;-86
2022/10/12 01:16:23;;;;;;;1.23;0.53;;;7.60;99.90;;;;;;6243255;22;20030;-90
2022/10/12 01:19:26;;;;;;;1.00;0.50;;;7.60;99.90;;;;;;6233005;22;20019;-91
2022/10/12 01:22:00;;;;;;;1.05;0.57;;;7.60;99.90;;;;;;6250916;22;20019;-90
2022/10/12 01:24:48;;;;;;;1.10;0.45;;;7.60;99.90;;;;;;6225260;22;20012;-89
2022/10/12 01:27:46;;;;;;;1.33;0.50;;;7.60;99.90;;;;;;6250585;22;20103;-89
2022/10/12 01:30:21;;;;;;;2.60;0.68;;;7.50;99.90;;;;;;6225168;22;20015;-89
2022/10/12 01:33:32;;;;;;;1.20;0.40;;;7.50;99.90;;;;;;6225128;22;20018;-89
2022/10/12 01:36:37;;;;;;;1.27;0.60;;;7.50;99.90;;;;;;6208866;22;20444;-90
2022/10/12 01:39:15;;;;;;;0.98;0.50;;;7.50;99.90;;;;;;6224015;22;20065;-90
2022/10/12 01:41:49;;;;;;;1.63;0.70;;;7.50;99.90;;;;;;6225276;22;20098;-89
2022/10/12 01:44:23;;;;;;;2.08;1.13;;;7.50;99.90;;;;;;6225230;22;20016;-90
2022/10/12 01:46:51;;;;;;;1.63;0.77;;;7.50;99.90;;;;;;6225194;22;20024;-90
2022/10/12 01:49:19;;;;;;;1.88;0.70;;;7.50;99.90;;;;;;6225522;22;20022;-91
2022/10/12 01:51:45;;;;;;;1.55;0.80;;;7.50;99.90;;;;;;6224705;22;20016;-91
2022/10/12 01:54:32;;;;;;;2.10;0.80;;;7.50;99.90;;;;;;6225210;22;20463;-91
2022/10/12 01:57:06;;;;;;;2.50;0.80;;;7.50;99.90;;;;;;6224913;22;20020;-90
2022/10/12 02:00:00;;;;;;;2.15;0.80;;;7.60;99.90;;;;;;6224788;22;20020;-89
2022/10/12 02:03:00;;;;;;;0.85;0.40;;;7.60;99.90;;;;;;6224841;22;20082;-89
2022/10/12 02:05:34;;;;;;;1.05;0.50;;;7.50;99.90;;;;;;6224935;22;20016;-89
2022/10/12 02:08:03;;;;;;;0.55;0.40;;;7.40;99.90;;;;;;6225104;22;20066;-88
2022/10/12 02:10:38;;;;;;;1.50;0.40;;;7.40;99.90;;;;;;6224248;22;20016;-88
2022/10/12 02:13:08;;;;;;;1.15;0.52;;;7.40;99.90;;;;;;6224873;22;20016;-88
2022/10/12 02:15:47;;;;;;;0.65;0.35;;;7.30;99.90;;;;;;6250559;22;20016;-88
2022/10/12 02:18:17;;;;;;;1.48;0.57;;;7.20;99.90;;;;;;6224627;22;20015;-88
2022/10/12 02:20:46;;;;;;;1.33;0.50;;;7.10;99.90;;;;;;6249764;22;20054;-90
2022/10/12 02:23:13;;;;;;;1.20;0.65;;;7.10;99.90;;;;;;6224912;22;20020;-87
2022/10/12 02:25:42;;;;;;;0.90;0.50;;;7.20;99.90;;;;;;6224190;22;20100;-91
2022/10/12 02:28:11;;;;;;;1.67;0.55;;;7.10;99.90;;;;;;6174107;22;20016;-90
2022/10/12 02:31:18;;;;;;;0.82;0.50;;;7.20;99.90;;;;;;6223871;22;20023;-90
2022/10/12 02:37:25;;;;;;;0.88;0.47;;;7.10;99.90;;;;;;6250159;22;20457;-91
2022/10/12 02:40:19;;;;;;;1.50;0.60;;;7.10;99.90;;;;;;6226025;22;20016;-89
2022/10/12 02:42:53;;;;;;;2.80;0.60;;;7.20;99.90;;;;;;6162976;22;20024;-88
2022/10/12 02:45:35;;;;;;;1.65;0.80;;;7.20;99.90;;;;;;6224670;22;20047;-88
2022/10/12 02:48:03;;;;;;;1.80;0.88;;;7.30;99.90;;;;;;6224222;22;20094;-89
2022/10/12 02:50:30;;;;;;;2.33;0.88;;;7.30;99.90;;;;;;6225011;22;20025;-88
2022/10/12 02:52:59;;;;;;;2.55;1.00;;;7.30;99.90;;;;;;6200561;22;20449;-88
2022/10/12 02:55:24;;;;;;;1.57;0.70;;;7.30;99.90;;;;;;6224797;22;20016;-91
2022/10/12 02:57:50;;;;;;;1.70;0.90;;;7.30;99.90;;;;;;6199672;22;20012;-90
2022/10/12 03:00:16;;;;;;;3.03;0.90;;;7.40;99.90;;;;;;6174774;22;20019;-90
2022/10/12 03:02:42;;;;;;;2.15;0.90;;;7.30;99.90;;;;;;6224500;22;20012;-89
2022/10/12 03:05:08;;;;;;;2.47;0.97;;;7.30;99.90;;;;;;6224866;22;20022;-89
2022/10/12 03:07:33;;;;;;;2.43;0.90;;;7.30;99.90;;;;;;6199889;22;20353;-89
2022/10/12 03:09:59;;;;;;;4.07;0.80;;;7.30;99.90;;;;;;6199822;22;20019;-90
2022/10/12 03:12:25;;;;;;;4.03;0.80;;;7.40;99.90;;;;;;6200086;22;20349;-87
2022/10/12 03:14:50;;;;;;;1.87;1.00;;;7.30;99.90;;;;;;6244596;22;20062;-89
2022/10/12 03:17:16;;;;;;;2.13;0.93;;;7.30;99.90;;;;;;6194875;23;20031;-89
2022/10/12 03:19:42;;;;;;;2.33;0.97;;;7.30;99.90;;;;;;6194673;23;20051;-89
2022/10/12 03:22:07;;;;;;;1.53;0.70;;;7.30;99.90;;;;;;6194328;23;20441;-91
2022/10/12 03:24:33;;;;;;;1.63;0.73;;;7.30;99.90;;;;;;6171687;23;20023;-89
2022/10/12 03:26:59;;;;;;;3.37;0.70;;;7.20;99.90;;;;;;6196573;23;20012;-89
2022/10/12 03:29:24;;;;;;;2.00;0.80;;;7.20;99.90;;;;;;6171602;23;20020;-91
2022/10/12 03:31:50;;;;;;;2.17;1.10;;;7.20;99.90;;;;;;6196728;23;20247;-89
2022/10/12 03:34:16;;;;;;;2.07;0.70;;;7.20;99.90;;;;;;6171532;23;20020;-88
2022/10/12 03:36:41;;;;;;;2.37;0.70;;;7.10;99.90;;;;;;6221669;23;20058;-91
2022/10/12 03:39:07;;;;;;;1.27;0.70;;;7.10;99.90;;;;;;6171920;23;20016;-90
2022/10/12 03:41:33;;;;;;;1.77;0.80;;;7.00;99.90;;;;;;6196569;23;20347;-90
2022/10/12 03:43:59;;;;;;;3.97;0.90;;;7.00;99.90;;;;;;6196491;23;20016;-90
2022/10/12 03:46:24;;;;;;;3.77;0.90;;;7.10;99.90;;;;;;6196244;23;20017;-90
2022/10/12 03:48:50;;;;;;;2.43;0.90;;;7.00;99.90;;;;;;6196447;23;20397;-90
2022/10/12 03:51:16;;;;;;;2.47;0.90;;;7.10;99.90;;;;;;6193924;23;20454;-91
2022/10/12 03:53:41;;;;;;;2.57;1.00;;;7.10;99.90;;;;;;6169510;23;20046;-90
2022/10/12 03:56:07;;;;;;;1.43;0.63;;;7.10;99.90;;;;;;6144975;23;20012;-90
2022/10/12 03:58:33;;;;;;;2.43;0.90;;;7.10;99.90;;;;;;6194197;23;20067;-90
2022/10/12 04:00:58;;;;;;;3.57;0.90;;;7.00;99.90;;;;;;6170919;23;20071;-89
2022/10/12 04:03:24;;;;;;;1.87;0.73;;;7.10;99.90;;;;;;6195276;23;20078;-90
2022/10/12 04:05:55;;;;;;;1.60;0.80;;;7.00;99.90;;;;;;6221127;23;20016;-89
2022/10/12 04:08:21;;;;;;;1.25;0.70;;;7.00;99.90;;;;;;6196249;23;20104;-90
2022/10/12 04:10:49;;;;;;;1.27;0.70;;;7.00;99.90;;;;;;6196169;23;20410;-90
2022/10/12 04:13:16;;;;;;;1.10;0.60;;;7.00;99.90;;;;;;6147826;23;20016;-90
2022/10/12 04:16:03;;;;;;;1.90;0.80;;;7.00;99.90;;;;;;6147899;23;20078;-89
2022/10/12 04:18:29;;;;;;;1.10;0.70;;;6.90;99.90;;;;;;6195551;23;20027;-89
2022/10/12 04:20:55;;;;;;;2.67;0.90;;;6.90;99.90;;;;;;6221095;23;20020;-90
2022/10/12 04:23:21;;;;;;;1.93;0.90;;;6.90;99.90;;;;;;6196061;23;20012;-89
2022/10/12 04:25:46;;;;;;;1.67;0.83;;;7.00;99.90;;;;;;6196285;23;20016;-90
2022/10/12 04:28:12;;;;;;;4.47;1.27;;;7.10;99.90;;;;;;6196022;23;20453;-90
2022/10/12 04:30:38;;;;;;;2.03;1.17;;;7.10;99.90;;;;;;6171122;23;20354;-89
2022/10/12 04:33:04;;;;;;;3.40;1.10;;;7.10;99.90;;;;;;6146638;23;20019;-89
2022/10/12 04:35:31;;;;;;;2.78;1.15;;;7.20;99.90;;;;;;6195637;23;20384;-88
2022/10/12 04:37:56;;;;;;;2.15;0.93;;;7.20;99.90;;;;;;6197413;23;20047;-92
2022/10/12 04:40:22;;;;;;;2.67;1.00;;;7.20;99.90;;;;;;6160667;23;20020;-87
2022/10/12 04:42:48;;;;;;;2.80;1.00;;;7.20;99.90;;;;;;6208236;23;20093;-90
2022/10/12 04:45:14;;;;;;;2.13;0.87;;;7.20;99.90;;;;;;6146763;23;20613;-90
2022/10/12 04:47:40;;;;;;;3.55;1.20;;;7.30;99.90;;;;;;6196239;23;20016;-92
2022/10/12 04:50:06;;;;;;;3.37;1.03;;;7.30;99.90;;;;;;6146804;23;20081;-90
2022/10/12 04:52:32;;;;;;;3.35;1.20;;;7.30;99.90;;;;;;6171338;23;20016;-91
2022/10/12 04:54:57;;;;;;;3.43;0.90;;;7.30;99.90;;;;;;6171313;23;20023;-91
2022/10/12 04:57:23;;;;;;;4.23;1.13;;;7.30;99.90;;;;;;6170912;23;20054;-93
2022/10/12 04:59:49;;;;;;;2.57;1.00;;;7.30;99.90;;;;;;6195900;23;20020;-90
2022/10/12 05:02:15;;;;;;;4.37;1.10;;;7.30;99.90;;;;;;6195793;23;20024;-91
2022/10/12 05:04:41;;;;;;;4.15;0.98;;;7.30;99.90;;;;;;6195504;23;20024;-92
2022/10/12 05:07:07;;;;;;;2.97;1.13;;;7.30;99.90;;;;;;6195081;23;20024;-91
2022/10/12 05:09:32;;;;;;;4.30;0.90;;;7.30;99.90;;;;;;6195094;23;20012;-88
2022/10/12 05:11:58;;;;;;;3.07;1.07;;;7.30;99.90;;;;;;6169475;23;20019;-90
2022/10/12 05:14:24;;;;;;;1.90;0.87;;;7.30;99.90;;;;;;6211021;23;20047;-89
2022/10/12 05:16:49;;;;;;;3.57;1.10;;;7.30;99.90;;;;;;6201022;22;20103;-91
2022/10/12 05:19:15;;;;;;;1.83;0.90;;;7.30;99.90;;;;;;6195356;23;20020;-92
2022/10/12 05:21:41;;;;;;;3.87;1.00;;;7.20;99.90;;;;;;6195047;23;20016;-91
2022/10/12 05:24:08;;;;;;;2.40;1.03;;;7.20;99.90;;;;;;6194581;23;20100;-92
2022/10/12 05:26:33;;;;;;;1.33;0.60;;;7.10;99.90;;;;;;6195157;23;20051;-90
2022/10/12 05:28:59;;;;;;;1.47;0.70;;;7.10;99.90;;;;;;6170562;23;20023;-90
2022/10/12 05:31:25;;;;;;;1.80;0.70;;;6.90;99.90;;;;;;6170104;23;20054;-92
2022/10/12 05:33:50;;;;;;;1.50;0.90;;;6.90;99.90;;;;;;6170346;23;20059;-92
2022/10/12 05:36:16;;;;;;;2.00;0.80;;;6.80;99.90;;;;;;6170795;23;20020;-90
2022/10/12 05:38:42;;;;;;;1.53;0.80;;;6.80;99.90;;;;;;6220009;23;20019;-90
2022/10/12 05:41:07;;;;;;;2.37;0.70;;;6.70;99.90;;;;;;6145871;23;20016;-90
2022/10/12 05:43:33;;;;;;;0.80;0.50;;;6.70;99.90;;;;;;6170861;23;20023;-90
2022/10/12 05:45:59;;;;;;;1.47;0.70;;;6.70;99.90;;;;;;6195308;23;20048;-90
2022/10/12 05:48:24;;;;;;;2.60;0.70;;;6.70;99.90;;;;;;6146319;23;20333;-90
2022/10/12 05:50:53;;;;;;;1.90;0.90;;;6.70;99.90;;;;;;6170960;23;20055;-89
2022/10/12 05:53:22;;;;;;;1.42;0.70;;;6.70;99.90;;;;;;6195518;23;20449;-89
2022/10/12 05:55:56;;;;;;;2.53;0.82;;;6.70;99.90;;;;;;6220556;23;20020;-92
2022/10/12 05:58:23;;;;;;;2.22;0.80;;;6.70;99.90;;;;;;6195428;23;20016;-91
2022/10/12 06:00:49;;;;;;;1.52;0.70;;;6.60;99.90;;;;;;6170284;23;20036;-90
2022/10/12 06:03:24;;;;;;;2.40;0.90;;;6.70;99.90;;;;;;6170467;23;20434;-90
2022/10/12 06:05:50;;;;;;;1.70;0.68;;;6.70;99.90;;;;;;6194884;23;20449;-90
2022/10/12 06:08:15;;;;;;;2.47;1.00;;;6.70;99.90;;;;;;6194988;23;20017;-90
2022/10/12 06:10:46;;;;;;;2.57;0.93;;;6.80;99.90;;;;;;6194606;23;20016;-87
2022/10/12 06:13:12;;;;;;;1.95;0.88;;;6.80;99.90;;;;;;6169776;23;20020;-88
2022/10/12 06:15:38;;;;;;;2.67;0.80;;;6.80;99.90;;;;;;6194719;23;20350;-90
2022/10/12 06:19:13;;;;;;;1.40;0.70;;;6.80;99.90;;;;;;6194418;23;20058;-87
2022/10/12 06:22:29;;;;;;;2.00;0.90;;;6.70;99.90;;;;;;6195090;23;20043;-86
2022/10/12 06:24:55;;;;;;;2.08;0.70;;;6.80;99.90;;;;;;6194458;23;20052;-87
2022/10/12 06:27:21;;;;;;;1.47;0.63;;;6.80;99.90;;;;;;6169551;23;20453;-87
2022/10/12 06:29:49;;;;;;;2.45;0.80;;;6.80;99.90;;;;;;6219646;23;20028;-87
2022/10/12 06:32:30;;;;;;;4.10;1.00;;;6.80;99.90;;;;;;6194590;23;20109;-88
2022/10/12 06:34:56;;;;;;;2.42;0.90;;;6.80;99.90;;;;;;6170187;23;20016;-88
2022/10/12 06:37:22;;;;;;;2.13;0.80;;;6.80;99.90;;;;;;6146849;23;20040;-91
2022/10/12 06:39:48;;;;;;;2.27;0.90;;;6.80;99.90;;;;;;6182406;23;20020;-89
2022/10/12 06:42:13;;;;;;;2.47;1.00;;;6.80;99.90;;;;;;6208102;23;20070;-89
2022/10/12 06:44:39;;;;;;;1.97;0.80;;;6.80;99.90;;;;;;6170038;23;20030;-90
2022/10/12 06:47:05;;;;;;;2.73;0.90;;;6.80;99.90;;;;;;6194562;23;20015;-89
2022/10/12 06:49:30;;;;;;;3.07;0.80;;;6.80;99.90;;;;;;6169874;23;20013;-90
2022/10/12 06:51:56;;;;;;;3.50;1.00;;;6.80;99.90;;;;;;6219967;23;20027;-89
2022/10/12 06:54:22;;;;;;;4.37;1.30;;;6.80;99.90;;;;;;6169883;23;20065;-90
2022/10/12 06:56:47;;;;;;;2.87;0.93;;;6.80;99.90;;;;;;6194551;23;20039;-90
2022/10/12 06:59:13;;;;;;;1.97;0.80;;;6.80;99.90;;;;;;6194880;23;20016;-91
2022/10/12 07:01:39;;;;;;;1.77;0.83;;;6.90;99.90;;;;;;6194227;23;20020;-91
2022/10/12 07:04:05;;;;;;;3.83;0.90;;;6.90;99.90;;;;;;6194753;23;20012;-90
2022/10/12 07:06:32;;;;;;;2.53;0.93;;;6.90;99.90;;;;;;6194813;23;20442;-90
2022/10/12 07:08:58;;;;;;;1.77;0.75;;;7.00;99.90;;;;;;6194837;23;20008;-90
2022/10/12 07:11:39;;;;;;;3.93;1.07;;;7.10;99.90;;;;;;6169664;23;20166;-90
2022/10/12 07:14:05;;;;;;;5.68;2.00;;;7.20;99.90;;;;;;6175266;23;20027;-88
2022/10/12 07:16:30;;;;;;;4.00;1.30;;;7.20;99.90;;;;;;6195336;23;20016;-88
2022/10/12 07:18:59;;;;;;;2.27;1.20;;;7.30;99.90;;;;;;6193682;23;20020;-87
2022/10/12 07:21:25;;;;;;;6.40;1.52;;;7.40;99.90;;;;;;6193705;23;20055;-89
2022/10/12 07:23:52;;;;;;;4.93;1.83;;;7.40;99.90;;;;;;6193746;23;20070;-88
2022/10/12 07:26:17;;;;;;;3.95;1.50;;;7.50;99.90;;;;;;6193744;23;20054;-88
2022/10/12 07:28:43;;;;;;;4.40;1.10;;;7.60;99.90;;;;;;6193975;23;20012;-91
2022/10/12 07:31:09;;;;;;;4.22;1.33;;;7.60;99.90;;;;;;6193909;23;20106;-89
2022/10/12 07:33:37;;;;;;;8.70;2.40;;;7.70;99.90;;;;;;6193858;23;20377;-89
2022/10/12 07:36:04;;;;;;;6.65;2.00;;;7.80;99.90;;;;;;6194393;23;20051;-92
2022/10/12 07:38:30;;;;;;;4.78;1.65;;;7.80;99.90;;;;;;6219369;23;20405;-89
2022/10/12 07:41:07;;;;;;;4.43;2.00;;;7.90;99.90;;;;;;6194789;23;20049;-90
2022/10/12 07:43:33;;;;;;;4.50;1.92;;;8.00;99.90;;;;;;6193526;23;20019;-89
2022/10/12 07:45:59;;;;;;;5.23;2.03;;;8.00;99.90;;;;;;6169374;23;20020;-89
2022/10/12 07:48:25;;;;;;;5.10;1.93;;;8.10;99.90;;;;;;6169288;23;20091;-89
2022/10/12 07:50:50;;;;;;;6.07;2.70;;;8.20;99.90;;;;;;6193657;23;20023;-89
2022/10/12 07:53:16;;;;;;;4.83;2.07;;;8.20;99.90;;;;;;6144324;23;20016;-89
2022/10/12 07:55:42;;;;;;;6.03;2.30;;;8.30;99.90;;;;;;6194348;23;20027;-89
2022/10/12 07:58:08;;;;;;;7.57;2.13;;;8.30;99.90;;;;;;6169185;23;20012;-89
2022/10/12 08:00:33;;;;;;;4.15;1.65;;;8.40;99.90;;;;;;6194247;23;20016;-90
2022/10/12 08:02:59;;;;;;;5.90;1.90;;;8.40;99.90;;;;;;6219349;23;20048;-90
2022/10/12 08:05:26;;;;;;;4.90;1.93;;;8.50;99.90;;;;;;6194083;23;20365;-89
2022/10/12 08:07:52;;;;;;;4.05;1.95;;;8.50;99.90;;;;;;6194753;23;20008;-92
2022/10/12 08:10:19;;;;;;;6.80;2.07;;;8.50;99.90;;;;;;6194816;23;20464;-91
2022/10/12 08:12:45;;;;;;;5.78;2.30;;;8.50;99.90;;;;;;6194880;23;20019;-91
2022/10/12 08:15:12;;;;;;;5.95;1.92;;;8.60;99.90;;;;;;6192073;23;20019;-91
2022/10/12 08:17:38;;;;;;;5.30;2.40;;;8.70;99.90;;;;;;6192679;23;20012;-91
2022/10/12 08:20:05;;;;;;;7.28;2.30;;;8.70;99.90;;;;;;6196159;23;20353;-91
2022/10/12 08:22:31;;;;;;;5.90;1.90;;;8.80;99.90;;;;;;6193937;23;20016;-91
2022/10/12 08:24:57;;;;;;;5.87;2.30;;;8.80;99.90;;;;;;6196060;23;20020;-92
2022/10/12 08:27:23;;;;;;;5.93;2.23;;;8.80;99.90;;;;;;6195873;23;20063;-90
2022/10/12 08:29:48;;;;;;;5.83;2.43;;;8.90;99.90;;;;;;6196266;23;20059;-90
2022/10/12 08:32:14;;;;;;;4.53;2.37;;;8.90;99.90;;;;;;6171199;23;20016;-91
2022/10/12 08:34:40;;;;;;;5.93;2.30;;;9.00;99.90;;;;;;6196138;23;20050;-91
2022/10/12 08:37:06;;;;;;;6.20;2.42;;;9.00;99.90;;;;;;6197592;23;20418;-90
2022/10/12 08:39:32;;;;;;;5.40;2.63;;;9.10;99.90;;;;;;6182087;23;20016;-89
2022/10/12 08:42:10;;;;;;;4.73;2.10;;;9.20;99.90;;;;;;6212185;23;20042;-90
2022/10/12 08:44:56;;;;;;;5.30;2.55;;;9.20;99.90;;;;;;6196766;23;20094;-92
2022/10/12 08:47:31;;;;;;;5.68;2.55;;;9.30;99.90;;;;;;6195882;23;20052;-91
2022/10/12 08:49:59;;;;;;;6.65;2.72;;;9.40;99.90;;;;;;6195935;23;20453;-92
2022/10/12 08:52:36;;;;;;;4.60;2.38;;;9.50;99.90;;;;;;6221540;23;20017;-92
2022/10/12 08:55:39;;;;;;;6.68;2.65;;;9.60;99.90;;;;;;6196225;23;20020;-93
2022/10/12 08:58:19;;;;;;;5.75;2.50;;;9.70;99.90;;;;;;6195814;23;20043;-92
2022/10/12 09:00:49;;;;;;;7.72;2.88;;;9.80;99.90;;;;;;6195493;23;20027;-90
2022/10/12 09:03:21;;;;;;;6.22;3.00;;;9.80;99.90;;;;;;6195553;23;20499;-90
2022/10/12 09:06:18;;;;;;;7.82;3.08;;;9.90;99.90;;;;;;6193826;23;20020;-90
2022/10/12 09:09:18;;;;;;;7.00;2.85;;;9.90;99.90;;;;;;6190113;23;20068;-89
2022/10/12 09:12:01;;;;;;;7.93;2.53;;;10.00;99.90;;;;;;6195492;23;20022;-90
2022/10/12 09:14:32;;;;;;;11.77;5.30;;;10.00;99.90;;;;;;6230259;23;20055;-88
2022/10/12 09:17:01;;;;;;;7.30;2.72;;;10.10;99.90;;;;;;6196165;22;20095;-87
2022/10/12 09:20:24;;;;;;;6.68;2.75;;;10.10;99.90;;;;;;6193543;23;20066;-87
2022/10/12 09:23:56;;;;;;;9.93;3.15;;;10.10;99.90;;;;;;6194501;23;20020;-89
2022/10/12 09:26:30;;;;;;;8.85;3.58;;;10.20;99.90;;;;;;6219887;23;20392;-87
2022/10/12 09:28:57;;;;;;;7.68;2.65;;;10.20;99.90;;;;;;6195091;23;20015;-86
2022/10/12 09:31:39;;;;;;;6.40;2.45;;;10.30;99.90;;;;;;6170376;23;20051;-89
2022/10/12 09:34:07;;;;;;;6.95;2.70;;;10.30;99.90;;;;;;6194956;23;20050;-89
2022/10/12 09:36:38;;;;;;;5.10;2.03;;;10.30;99.90;;;;;;6195271;23;20024;-92
2022/10/12 09:39:28;;;;;;;9.65;2.45;;;10.40;99.90;;;;;;6220087;23;20515;-89
2022/10/12 09:42:16;;;;;;;9.48;3.83;;;10.40;99.90;;;;;;6193520;23;20024;-88
2022/10/12 09:45:00;;;;;;;7.00;3.65;;;10.50;99.90;;;;;;6194167;23;20529;-92
2022/10/12 09:47:29;;;;;;;47.20;32.65;;;10.70;99.90;;;;;;6219551;23;20023;-87
2022/10/12 09:50:03;;;;;;;6.85;4.15;;;10.70;99.90;;;;;;6246532;23;20039;-88
2022/10/12 09:52:34;;;;;;;11.60;9.82;;;10.90;99.90;;;;;;6193097;23;20019;-88
2022/10/12 09:55:04;;;;;;;12.30;10.20;;;11.00;99.90;;;;;;6246892;23;20091;-90
2022/10/12 09:57:32;;;;;;;6.05;2.60;;;11.10;99.90;;;;;;6219113;22;20040;-89
2022/10/12 10:00:33;;;;;;;7.03;3.53;;;11.20;99.90;;;;;;6195348;23;20047;-91
2022/10/12 10:03:00;;;;;;;7.13;3.85;;;11.40;99.90;;;;;;6195026;23;20411;-90
2022/10/12 10:05:26;;;;;;;3.25;1.60;;;11.40;99.90;;;;;;6195737;23;20020;-91
2022/10/12 10:07:52;;;;;;;4.87;2.07;;;11.50;99.90;;;;;;6195082;23;20019;-89
2022/10/12 10:10:21;;;;;;;5.25;1.63;;;11.60;99.90;;;;;;6170340;23;20091;-90
2022/10/12 10:12:55;;;;;;;5.07;1.50;;;11.70;99.90;;;;;;6195102;23;20019;-90
2022/10/12 10:21:38;;;;;;;3.92;1.23;;;11.90;99.90;;;;;;6243996;22;20395;-91
2022/10/12 10:24:18;;;;;;;5.00;1.35;;;12.00;99.90;;;;;;6194955;23;20016;-92
2022/10/12 10:26:53;;;;;;;4.55;1.20;;;12.10;99.90;;;;;;6195018;23;20056;-90
2022/10/12 10:29:47;;;;;;;3.90;1.10;;;12.20;99.90;;;;;;6194321;23;20023;-91
2022/10/12 10:32:26;;;;;;;4.35;1.13;;;12.30;99.90;;;;;;6194983;23;20016;-91
2022/10/12 10:35:10;;;;;;;3.42;1.02;;;12.40;99.90;;;;;;6224358;23;20019;-91
2022/10/12 10:37:56;;;;;;;4.07;1.10;;;12.50;99.90;;;;;;6228000;23;20071;-89
2022/10/12 10:40:40;;;;;;;2.80;1.05;;;12.60;99.90;;;;;;6243981;23;20042;-89
2022/10/12 10:49:06;;;;;;;2.78;0.80;;;12.70;99.90;;;;;;6282759;22;20026;-90
2022/10/12 11:07:08;;;;;;;2.47;0.73;;;13.30;99.90;;;;;;6273441;22;20019;-91
2022/10/12 11:20:53;;;;;;;;;;;;;;;;;;;;;
2022/10/12 11:23:58;;;;;;;2.70;0.55;;;13.80;99.90;;;;;;6153854;23;20028;-90
2022/10/12 11:26:30;;;;;;;5.07;0.82;;;13.80;99.90;;;;;;6109384;22;20069;-90
2022/10/12 11:28:59;;;;;;;1.65;0.60;;;13.90;99.90;;;;;;6255442;22;20444;-90
2022/10/12 11:31:35;;;;;;;3.72;0.90;;;13.90;99.90;;;;;;6229882;22;20015;-90
2022/10/12 11:34:04;;;;;;;4.18;0.50;;;14.00;99.90;;;;;;6255116;22;20054;-90
2022/10/12 11:36:33;;;;;;;3.13;0.70;;;14.00;99.90;;;;;;6254978;22;20015;-89
2022/10/12 11:39:03;;;;;;;2.28;0.50;;;14.00;99.90;;;;;;6280395;22;20109;-89
2022/10/12 11:41:46;;;;;;;4.15;0.80;;;14.00;99.90;;;;;;6255156;22;20145;-88
2022/10/12 11:44:15;;;;;;;1.30;0.43;;;14.10;99.90;;;;;;6255288;22;20026;-89
2022/10/12 11:47:09;;;;;;;1.77;0.50;;;14.10;99.90;;;;;;6256997;22;20015;-89
2022/10/12 11:49:58;;;;;;;3.47;0.88;;;14.10;99.90;;;;;;6236953;22;20065;-89
2022/10/12 11:52:25;;;;;;;2.13;0.50;;;14.10;99.90;;;;;;6257159;22;20322;-89
2022/10/12 11:55:24;;;;;;;2.67;1.33;;;14.20;99.90;;;;;;6256666;22;20015;-91
2022/10/12 11:57:51;;;;;;;2.30;0.60;;;14.20;99.90;;;;;;6256667;22;20050;-88
2022/10/12 12:00:26;;;;;;;5.38;1.17;;;14.20;99.90;;;;;;6257032;22;20038;-91
2022/10/12 12:03:09;;;;;;;2.78;0.60;;;14.20;99.90;;;;;;6256888;22;20098;-89
2022/10/12 12:05:35;;;;;;;3.13;0.65;;;14.30;99.90;;;;;;6256521;22;20090;-89
2022/10/12 12:08:01;;;;;;;5.33;0.73;;;14.30;99.90;;;;;;6231257;22;20080;-92
2022/10/12 12:10:27;;;;;;;4.80;0.50;;;14.30;99.90;;;;;;6256391;22;20273;-89
2022/10/12 12:13:13;;;;;;;1.88;0.63;;;14.40;99.90;;;;;;6256725;22;20018;-91
2022/10/12 12:16:00;;;;;;;5.05;0.68;;;14.40;99.90;;;;;;6256735;22;20041;-88
2022/10/12 12:18:29;;;;;;;2.22;0.57;;;14.30;99.90;;;;;;6255753;22;20011;-89
2022/10/12 12:21:05;;;;;;;3.10;0.50;;;14.30;99.90;;;;;;6256474;22;20025;-90
2022/10/12 12:23:52;;;;;;;1.92;0.52;;;14.30;99.90;;;;;;6256396;22;20019;-89
2022/10/12 12:26:20;;;;;;;1.92;0.45;;;14.30;99.90;;;;;;6256461;22;20011;-89
2022/10/12 12:29:23;;;;;;;3.42;0.68;;;14.30;99.90;;;;;;6256423;22;20020;-89
2022/10/12 12:31:59;;;;;;;0.82;0.40;;;14.40;99.90;;;;;;6252544;22;20023;-89
2022/10/12 12:34:26;;;;;;;4.35;0.63;;;14.30;99.90;;;;;;6256422;22;20046;-88
2022/10/12 12:36:53;;;;;;;3.03;0.80;;;14.30;99.90;;;;;;6256549;22;20090;-90
2022/10/12 12:39:23;;;;;;;3.65;0.60;;;14.40;99.90;;;;;;6282603;22;20390;-92
2022/10/12 12:41:56;;;;;;;2.25;0.52;;;14.30;99.90;;;;;;6268010;22;20019;-89
2022/10/12 12:44:46;;;;;;;2.65;0.38;;;14.30;99.90;;;;;;6262864;22;20379;-88
2022/10/12 12:47:12;;;;;;;4.00;0.63;;;14.40;99.90;;;;;;6256501;22;20026;-89
2022/10/12 12:49:47;;;;;;;5.07;0.50;;;14.30;99.90;;;;;;6256269;22;20019;-89
2022/10/12 12:52:36;;;;;;;2.05;0.40;;;14.30;99.90;;;;;;6256142;22;20015;-90
2022/10/12 12:55:36;;;;;;;3.05;1.10;;;14.30;99.90;;;;;;6255629;22;20015;-88
2022/10/12 12:58:04;;;;;;;1.77;0.50;;;14.20;99.90;;;;;;6256111;22;20057;-90
2022/10/12 13:00:52;;;;;;;0.75;0.30;;;14.20;99.90;;;;;;6256766;22;20011;-90
2022/10/12 13:03:29;;;;;;;1.80;0.40;;;14.20;99.90;;;;;;6256286;22;20019;-89
2022/10/12 13:06:14;;;;;;;1.23;0.40;;;14.10;99.90;;;;;;6256614;22;20022;-89
2022/10/12 13:09:09;;;;;;;1.83;0.60;;;14.10;99.90;;;;;;6256013;22;20456;-89
2022/10/12 13:11:59;;;;;;;2.40;0.52;;;14.10;99.90;;;;;;6124101;22;20018;-87
2022/10/12 13:14:45;;;;;;;1.60;0.50;;;14.10;99.90;;;;;;6256825;22;20439;-89
2022/10/12 13:17:48;;;;;;;4.25;0.50;;;14.10;99.90;;;;;;6277551;22;20026;-88
2022/10/12 13:20:27;;;;;;;2.85;0.50;;;14.10;99.90;;;;;;6262148;22;20409;-89
2022/10/12 13:22:56;;;;;;;2.00;0.38;;;14.10;99.90;;;;;;6255892;22;20441;-89
2022/10/12 13:25:44;;;;;;;1.30;0.30;;;14.00;99.90;;;;;;6255963;22;20022;-89
2022/10/12 13:28:27;;;;;;;2.85;0.50;;;14.00;99.90;;;;;;6256091;22;20398;-88
2022/10/12 13:31:01;;;;;;;1.25;0.40;;;14.00;99.90;;;;;;6255937;22;20021;-91
2022/10/12 13:33:38;;;;;;;2.38;0.90;;;13.90;99.90;;;;;;6255970;22;20503;-90
2022/10/12 13:36:06;;;;;;;0.98;0.40;;;13.90;99.90;;;;;;6255605;22;20007;-89
2022/10/12 13:38:33;;;;;;;1.77;0.40;;;13.90;99.90;;;;;;6255810;22;20026;-90
2022/10/12 13:41:13;;;;;;;3.00;0.60;;;13.90;99.90;;;;;;6230590;22;20433;-89
2022/10/12 13:43:53;;;;;;;2.75;0.52;;;13.80;99.90;;;;;;6255835;22;20013;-89
2022/10/12 13:46:36;;;;;;;2.05;0.45;;;13.90;99.90;;;;;;6281566;22;20019;-89
2022/10/12 13:49:20;;;;;;;1.95;0.50;;;13.90;99.90;;;;;;6255699;22;20015;-89
2022/10/12 13:51:55;;;;;;;3.30;0.50;;;13.80;99.90;;;;;;6255941;22;20057;-89
2022/10/12 13:54:36;;;;;;;1.42;0.40;;;13.90;99.90;;;;;;6255730;22;20407;-90
2022/10/12 13:57:07;;;;;;;1.75;0.40;;;13.80;99.90;;;;;;6255512;22;20015;-89
2022/10/12 13:59:38;;;;;;;2.78;0.57;;;13.80;99.90;;;;;;6255970;22;20011;-88
2022/10/12 14:02:17;;;;;;;4.20;0.65;;;13.80;99.90;;;;;;6255657;22;20019;-90
2022/10/12 14:04:43;;;;;;;4.25;0.50;;;13.70;99.90;;;;;;6255833;22;20437;-91
2022/10/12 14:07:20;;;;;;;1.42;0.38;;;13.70;99.90;;;;;;6255535;22;20476;-89